createdAt,value
2023-02-04T00:00:11.402Z,13.68
2023-02-04T00:02:41.363Z,16.75
2023-02-04T00:05:10.223Z,17.45
2023-02-04T00:07:38.441Z,15.30
2023-02-04T00:10:07.084Z,7.78
2023-02-04T00:12:34.626Z,13.18
2023-02-04T00:15:02.306Z,14.52
2023-02-04T00:17:29.237Z,17.25
2023-02-04T00:19:56.362Z,17.10
2023-02-04T00:22:23.686Z,11.73
2023-02-04T00:24:50.817Z,10.45
2023-02-04T00:27:17.970Z,11.80
2023-02-04T00:29:45.872Z,10.30
2023-02-04T00:32:14.295Z,12.48
2023-02-04T00:34:41.744Z,10.27
2023-02-04T00:37:09.068Z,11.32
2023-02-04T00:39:36.216Z,12.98
2023-02-04T00:42:04.062Z,16.70
2023-02-04T00:44:31.389Z,12.02
2023-02-04T00:46:58.677Z,15.55
2023-02-04T00:49:26.048Z,22.17
2023-02-04T00:51:53.121Z,11.60
2023-02-04T00:54:20.399Z,17.02
2023-02-04T00:56:47.453Z,16.23
2023-02-04T00:59:14.819Z,18.20
2023-02-04T01:01:42.183Z,13.38
2023-02-04T01:04:09.295Z,13.45
2023-02-04T01:06:36.858Z,10.88
2023-02-04T01:09:04.875Z,10.93
2023-02-04T01:11:31.898Z,12.50
2023-02-04T01:13:59.388Z,12.20
2023-02-04T01:16:27.376Z,17.10
2023-02-04T01:18:56.495Z,17.42
2023-02-04T01:21:25.296Z,16.42
2023-02-04T01:23:53.036Z,14.63
2023-02-04T01:26:20.627Z,21.05
2023-02-04T01:28:48.403Z,14.90
2023-02-04T01:31:16.001Z,13.80
2023-02-04T01:33:43.222Z,10.52
2023-02-04T01:36:10.744Z,19.42
2023-02-04T01:38:37.952Z,16.67
2023-02-04T01:41:06.102Z,14.25
2023-02-04T01:43:34.142Z,8.73
2023-02-04T01:46:02.748Z,17.98
2023-02-04T01:48:30.811Z,18.15
2023-02-04T01:51:06.385Z,13.75
2023-02-04T01:53:34.783Z,19.52
2023-02-04T01:56:02.505Z,15.80
2023-02-04T01:58:32.659Z,15.77
2023-02-04T02:00:59.821Z,18.55
2023-02-04T02:03:26.789Z,15.45
2023-02-04T02:05:56.041Z,12.88
2023-02-04T02:08:26.461Z,15.20
2023-02-04T02:10:53.840Z,15.60
2023-02-04T02:13:20.936Z,13.10
2023-02-04T02:15:48.254Z,15.55
2023-02-04T02:18:16.336Z,18.65
2023-02-04T02:20:45.525Z,13.55
2023-02-04T02:23:54.069Z,13.88
2023-02-04T02:26:23.107Z,14.25
2023-02-04T02:28:50.843Z,17.80
2023-02-04T02:31:21.327Z,22.38
2023-02-04T02:33:49.496Z,16.35
2023-02-04T02:36:17.204Z,20.92
2023-02-04T02:38:45.718Z,16.83
2023-02-04T02:41:12.650Z,16.48
2023-02-04T02:43:40.202Z,12.50
2023-02-04T02:46:07.648Z,16.63
2023-02-04T02:48:35.221Z,18.95
2023-02-04T02:51:02.245Z,17.67
2023-02-04T02:53:29.233Z,16.58
2023-02-04T02:55:56.904Z,19.83
2023-02-04T02:58:29.264Z,15.32
2023-02-04T03:00:57.754Z,14.07
2023-02-04T03:03:29.075Z,17.67
2023-02-04T03:06:01.455Z,17.00
2023-02-04T03:08:28.856Z,23.25
2023-02-04T03:10:56.323Z,12.77
2023-02-04T03:13:23.732Z,18.13
2023-02-04T03:15:51.044Z,16.70
2023-02-04T03:18:21.163Z,16.10
2023-02-04T03:20:49.737Z,25.25
2023-02-04T03:23:17.970Z,18.65
2023-02-04T03:25:45.334Z,18.20
2023-02-04T03:28:12.941Z,14.77
2023-02-04T03:30:40.168Z,24.35
2023-02-04T03:33:07.469Z,16.65
2023-02-04T03:35:34.643Z,16.20
2023-02-04T03:38:01.663Z,15.38
2023-02-04T03:40:30.419Z,19.15
2023-02-04T03:42:57.713Z,18.65
2023-02-04T03:45:25.056Z,15.90
2023-02-04T03:47:55.467Z,16.98
2023-02-04T03:50:22.406Z,22.85
2023-02-04T03:52:51.588Z,19.67
2023-02-04T03:55:18.629Z,13.65
2023-02-04T03:57:46.743Z,25.15
2023-02-04T04:00:14.859Z,16.80
2023-02-04T04:02:42.077Z,19.05
2023-02-04T04:05:10.455Z,20.23
2023-02-04T04:07:37.650Z,24.10
2023-02-04T04:10:06.029Z,19.90
2023-02-04T04:12:33.077Z,14.82
2023-02-04T04:15:00.114Z,20.85
2023-02-04T04:17:28.184Z,11.05
2023-02-04T04:19:55.521Z,22.92
2023-02-04T04:22:22.718Z,11.70
2023-02-04T04:24:49.733Z,21.00
2023-02-04T04:27:17.300Z,16.85
2023-02-04T04:29:44.288Z,19.88
2023-02-04T04:32:11.576Z,20.88
2023-02-04T04:34:38.616Z,23.23
2023-02-04T04:37:07.016Z,16.13
2023-02-04T04:39:34.052Z,15.13
2023-02-04T04:42:01.182Z,13.70
2023-02-04T04:44:28.251Z,18.05
2023-02-04T04:46:55.523Z,23.90
2023-02-04T04:49:23.059Z,22.92
2023-02-04T04:51:50.139Z,19.70
2023-02-04T04:54:17.619Z,24.45
2023-02-04T04:56:44.674Z,22.33
2023-02-04T04:59:11.667Z,22.40
2023-02-04T05:01:39.414Z,21.65
2023-02-04T05:04:06.750Z,15.88
2023-02-04T05:06:33.856Z,17.65
2023-02-04T05:09:01.264Z,16.77
2023-02-04T05:11:28.407Z,18.80
2023-02-04T05:13:55.517Z,18.08
2023-02-04T05:16:22.494Z,18.45
2023-02-04T05:18:49.566Z,25.40
2023-02-04T05:21:16.586Z,18.73
2023-02-04T05:23:45.072Z,16.92
2023-02-04T05:26:22.154Z,17.83
2023-02-04T05:28:56.347Z,16.42
2023-02-04T05:31:23.452Z,9.60
2023-02-04T05:33:51.052Z,15.50
2023-02-04T05:36:18.086Z,16.25
2023-02-04T05:38:45.033Z,15.20
2023-02-04T05:41:13.074Z,26.27
2023-02-04T05:43:40.188Z,11.70
2023-02-04T05:46:07.356Z,15.75
2023-02-04T05:48:35.674Z,15.80
2023-02-04T05:51:02.854Z,17.58
2023-02-04T05:53:30.155Z,12.57
2023-02-04T05:55:58.422Z,11.80
2023-02-04T05:58:25.800Z,10.93
2023-02-04T06:00:52.863Z,15.60
2023-02-04T06:03:21.715Z,16.85
2023-02-04T06:05:49.229Z,17.08
2023-02-04T06:08:16.905Z,18.23
2023-02-04T06:10:44.061Z,20.02
2023-02-04T06:13:11.428Z,19.13
2023-02-04T06:15:39.624Z,17.40
2023-02-04T06:18:07.044Z,24.10
2023-02-04T06:20:35.114Z,14.23
2023-02-04T06:23:02.302Z,20.77
2023-02-04T06:25:29.282Z,19.17
2023-02-04T06:27:58.889Z,17.45
2023-02-04T06:30:29.669Z,11.38
2023-02-04T06:32:57.103Z,22.30
2023-02-04T06:35:24.289Z,17.33
2023-02-04T06:37:51.258Z,19.83
2023-02-04T06:40:18.627Z,15.30
2023-02-04T06:42:45.949Z,16.77
2023-02-04T06:45:13.208Z,20.40
2023-02-04T06:47:40.530Z,17.52
2023-02-04T06:50:08.500Z,13.20
2023-02-04T06:52:35.745Z,17.23
2023-02-04T06:55:02.810Z,15.30
2023-02-04T06:57:29.896Z,15.98
2023-02-04T06:59:57.230Z,20.33
2023-02-04T07:02:24.185Z,16.65
2023-02-04T07:04:51.247Z,11.95
2023-02-04T07:07:18.301Z,17.05
2023-02-04T07:09:45.283Z,26.50
2023-02-04T07:12:15.268Z,17.88
2023-02-04T07:14:43.477Z,17.50
2023-02-04T07:17:10.607Z,17.73
2023-02-04T07:19:37.643Z,20.60
2023-02-04T07:22:05.182Z,16.02
2023-02-04T07:24:32.212Z,20.23
2023-02-04T07:27:00.760Z,13.90
2023-02-04T07:29:28.769Z,16.90
2023-02-04T07:31:56.126Z,16.55
2023-02-04T07:34:23.396Z,9.93
2023-02-04T07:36:50.539Z,18.17
2023-02-04T07:39:19.011Z,17.27
2023-02-04T07:41:46.028Z,16.20
2023-02-04T07:44:15.331Z,12.75
2023-02-04T07:46:42.378Z,20.80
2023-02-04T07:49:09.763Z,20.90
2023-02-04T07:51:36.852Z,17.35
2023-02-04T07:54:04.007Z,23.77
2023-02-04T07:56:32.473Z,26.60
2023-02-04T07:58:59.723Z,23.67
2023-02-04T08:01:26.961Z,25.20
2023-02-04T08:03:53.891Z,23.27
2023-02-04T08:06:21.119Z,21.40
2023-02-04T08:08:48.376Z,19.08
2023-02-04T08:11:15.893Z,16.05
2023-02-04T08:13:42.940Z,17.55
2023-02-04T08:16:11.834Z,18.52
2023-02-04T08:18:39.295Z,18.05
2023-02-04T08:21:07.047Z,19.52
2023-02-04T08:23:34.135Z,12.85
2023-02-04T08:26:01.330Z,12.30
2023-02-04T08:28:28.763Z,19.17
2023-02-04T08:30:56.476Z,14.05
2023-02-04T08:33:25.000Z,12.60
2023-02-04T08:35:52.379Z,16.25
2023-02-04T08:38:21.016Z,17.55
2023-02-04T08:40:48.256Z,9.13
2023-02-04T08:43:15.543Z,13.50
2023-02-04T08:45:42.534Z,15.57
2023-02-04T08:48:09.754Z,10.90
2023-02-04T08:50:39.022Z,9.02
2023-02-04T08:53:06.227Z,9.75
2023-02-04T08:55:33.134Z,10.00
2023-02-04T08:58:01.511Z,11.95
2023-02-04T09:00:28.720Z,9.90
2023-02-04T09:02:57.373Z,9.25
2023-02-04T09:05:24.298Z,13.35
2023-02-04T09:07:51.348Z,12.20
2023-02-04T09:10:18.419Z,15.57
2023-02-04T09:12:45.764Z,13.23
2023-02-04T09:15:13.298Z,17.63
2023-02-04T09:17:40.734Z,10.88
2023-02-04T09:20:08.265Z,13.77
2023-02-04T09:22:37.896Z,12.10
2023-02-04T09:25:05.109Z,7.65
2023-02-04T09:27:33.864Z,9.88
2023-02-04T09:30:00.826Z,10.38
2023-02-04T09:32:29.400Z,11.32
2023-02-04T09:34:56.341Z,10.50
2023-02-04T09:37:25.273Z,8.10
2023-02-04T09:39:52.591Z,8.77
2023-02-04T09:42:21.403Z,9.07
2023-02-04T09:44:49.316Z,9.07
2023-02-04T09:47:19.388Z,10.75
2023-02-04T09:49:48.045Z,9.38
2023-02-04T09:52:18.433Z,7.90
2023-02-04T09:54:46.461Z,10.82
2023-02-04T09:57:20.374Z,8.60
2023-02-04T09:59:47.661Z,10.13
2023-02-04T10:02:23.474Z,9.07
2023-02-04T10:04:55.454Z,13.55
2023-02-04T10:07:26.581Z,8.45
2023-02-04T10:09:56.680Z,7.95
2023-02-04T10:12:23.787Z,8.32
2023-02-04T10:14:51.289Z,13.15
2023-02-04T10:17:23.235Z,9.93
2023-02-04T10:19:51.083Z,12.32
2023-02-04T10:22:20.963Z,9.38
2023-02-04T10:24:48.522Z,11.98
2023-02-04T10:27:16.397Z,11.25
2023-02-04T10:29:54.806Z,11.50
2023-02-04T10:32:31.526Z,12.15
2023-02-04T10:35:02.575Z,9.88
2023-02-04T10:37:31.067Z,11.85
2023-02-04T10:39:58.328Z,12.45
2023-02-04T10:42:28.308Z,9.52
2023-02-04T10:44:55.968Z,12.20
2023-02-04T10:47:31.347Z,10.73
2023-02-04T10:50:06.671Z,7.85
2023-02-04T10:52:41.781Z,14.20
2023-02-04T10:55:16.035Z,9.25
2023-02-04T10:57:45.565Z,8.60
2023-02-04T11:00:22.978Z,11.40
2023-02-04T11:03:04.792Z,8.30
2023-02-04T11:05:33.865Z,12.20
2023-02-04T11:08:02.117Z,7.10
2023-02-04T11:10:32.477Z,12.80
2023-02-04T11:13:03.672Z,10.68
2023-02-04T11:15:50.783Z,7.40
2023-02-04T11:18:22.408Z,7.82
2023-02-04T11:20:52.475Z,8.02
2023-02-04T11:23:30.277Z,12.18
2023-02-04T11:26:03.790Z,14.10
2023-02-04T11:28:49.965Z,8.40
2023-02-04T11:31:20.189Z,12.00
2023-02-04T11:33:49.952Z,8.65
2023-02-04T11:36:17.716Z,10.13
2023-02-04T11:38:47.697Z,8.45
2023-02-04T11:41:29.539Z,11.98
2023-02-04T11:43:58.028Z,10.07
2023-02-04T11:46:28.318Z,7.50
2023-02-04T11:48:58.368Z,9.02
2023-02-04T11:51:35.130Z,11.27
2023-02-04T11:54:02.584Z,11.05
2023-02-04T11:56:30.454Z,14.10
2023-02-04T11:58:59.151Z,10.20
2023-02-04T12:01:34.160Z,10.95
2023-02-04T12:04:04.400Z,8.57
2023-02-04T12:06:34.736Z,12.02
2023-02-04T12:09:17.144Z,12.48
2023-02-04T12:11:55.502Z,11.02
2023-02-04T12:14:28.035Z,15.75
2023-02-04T12:16:56.823Z,14.27
2023-02-04T12:19:24.189Z,9.23
2023-02-04T12:21:52.061Z,8.85
2023-02-04T12:24:19.059Z,9.50
2023-02-04T12:26:46.191Z,10.60
2023-02-04T12:29:13.248Z,8.35
2023-02-04T12:31:40.399Z,9.70
2023-02-04T12:34:07.496Z,12.73
2023-02-04T12:36:34.608Z,9.77
2023-02-04T12:39:03.155Z,7.82
2023-02-04T12:41:30.172Z,7.55
2023-02-04T12:43:57.191Z,7.15
2023-02-04T12:46:24.846Z,8.02
2023-02-04T12:48:52.011Z,7.57
2023-02-04T12:51:21.291Z,8.30
2023-02-04T12:53:48.856Z,8.07
2023-02-04T12:56:16.594Z,10.18
2023-02-04T12:58:43.589Z,6.88
2023-02-04T13:01:10.795Z,8.13
2023-02-04T13:03:41.314Z,8.88
2023-02-04T13:06:08.768Z,7.45
2023-02-04T13:08:36.098Z,9.38
2023-02-04T13:11:04.430Z,6.90
2023-02-04T13:13:31.371Z,9.45
2023-02-04T13:15:58.517Z,9.00
2023-02-04T13:18:25.526Z,10.13
2023-02-04T13:20:53.854Z,10.73
2023-02-04T13:23:21.089Z,8.20
2023-02-04T13:25:48.123Z,5.72
2023-02-04T13:28:15.134Z,7.20
2023-02-04T13:30:42.393Z,6.25
2023-02-04T13:33:09.408Z,7.88
2023-02-04T13:35:36.452Z,4.97
2023-02-04T13:38:03.415Z,7.68
2023-02-04T13:40:30.489Z,5.78
2023-02-04T13:42:57.411Z,7.45
2023-02-04T13:45:26.124Z,6.35
2023-02-04T13:47:53.024Z,7.75
2023-02-04T13:50:20.326Z,7.70
2023-02-04T13:52:47.639Z,4.57
2023-02-04T13:55:15.139Z,9.13
2023-02-04T13:57:42.127Z,4.47
2023-02-04T14:00:11.897Z,8.40
2023-02-04T14:02:42.962Z,8.32
2023-02-04T14:05:10.623Z,9.02
2023-02-04T14:07:37.936Z,11.10
2023-02-04T14:10:05.545Z,9.23
2023-02-04T14:12:32.622Z,13.65
2023-02-04T14:15:00.202Z,13.38
2023-02-04T14:17:29.834Z,10.10
2023-02-04T14:19:56.800Z,10.43
2023-02-04T14:22:23.895Z,10.30
2023-02-04T14:24:51.993Z,9.45
2023-02-04T14:27:20.004Z,9.23
2023-02-04T14:29:47.093Z,10.77
2023-02-04T14:32:14.394Z,8.00
2023-02-04T14:34:41.911Z,7.18
2023-02-04T14:37:09.630Z,11.32
2023-02-04T14:39:37.277Z,9.30
2023-02-04T14:42:05.416Z,8.98
2023-02-04T14:44:33.174Z,12.10
2023-02-04T14:47:00.219Z,8.48
2023-02-04T14:49:27.633Z,6.65
2023-02-04T14:51:55.127Z,10.70
2023-02-04T14:54:22.093Z,8.85
2023-02-04T14:56:50.811Z,11.77
2023-02-04T14:59:17.858Z,8.38
2023-02-04T15:01:46.348Z,10.63
2023-02-04T15:04:13.811Z,7.20
2023-02-04T15:06:43.390Z,7.38
2023-02-04T15:09:10.451Z,4.65
2023-02-04T15:11:37.947Z,10.15
2023-02-04T15:14:06.367Z,10.80
2023-02-04T15:16:33.642Z,11.98
2023-02-04T15:19:00.768Z,9.70
2023-02-04T15:21:27.809Z,11.05
2023-02-04T15:23:56.896Z,11.63
2023-02-04T15:26:25.453Z,7.22
2023-02-04T15:28:52.606Z,9.43
2023-02-04T15:31:20.734Z,16.10
2023-02-04T15:33:47.865Z,17.48
2023-02-04T15:36:15.128Z,9.48
2023-02-04T15:38:42.892Z,15.65
2023-02-04T15:41:09.920Z,10.30
2023-02-04T15:43:37.175Z,11.75
2023-02-04T15:46:05.757Z,15.00
2023-02-04T15:48:32.979Z,8.07
2023-02-04T15:51:02.471Z,8.80
2023-02-04T15:53:29.553Z,12.98
2023-02-04T15:55:56.370Z,9.13
2023-02-04T15:58:23.479Z,14.32
2023-02-04T16:00:50.665Z,9.40
2023-02-04T16:03:17.985Z,8.80
2023-02-04T16:05:45.697Z,5.53
2023-02-04T16:08:13.085Z,8.43
2023-02-04T16:10:43.072Z,6.18
2023-02-04T16:13:10.396Z,9.90
2023-02-04T16:15:37.926Z,6.90
2023-02-04T16:18:05.798Z,9.73
2023-02-04T16:20:32.886Z,9.52
2023-02-04T16:22:59.991Z,15.90
2023-02-04T16:25:27.226Z,10.45
2023-02-04T16:27:54.505Z,10.30
2023-02-04T16:30:21.480Z,13.25
2023-02-04T16:32:49.210Z,13.40
2023-02-04T16:35:16.310Z,8.98
2023-02-04T16:37:43.358Z,13.43
2023-02-04T16:40:13.499Z,18.92
2023-02-04T16:42:40.750Z,14.77
2023-02-04T16:45:08.318Z,12.63
2023-02-04T16:47:36.449Z,18.45
2023-02-04T16:50:04.894Z,14.57
2023-02-04T16:52:32.608Z,18.73
2023-02-04T16:55:01.553Z,17.48
2023-02-04T16:57:28.916Z,14.50
2023-02-04T16:59:57.334Z,14.15
2023-02-04T17:02:25.643Z,13.60
2023-02-04T17:04:52.919Z,12.18
2023-02-04T17:07:19.818Z,11.63
2023-02-04T17:09:46.678Z,15.25
2023-02-04T17:12:13.677Z,10.40
2023-02-04T17:14:41.459Z,12.15
2023-02-04T17:17:09.577Z,15.90
2023-02-04T17:19:36.791Z,14.25
2023-02-04T17:22:04.168Z,11.73
2023-02-04T17:24:31.413Z,13.27
2023-02-04T17:27:00.707Z,11.45
2023-02-04T17:29:27.854Z,14.38
2023-02-04T17:31:56.112Z,13.93
2023-02-04T17:34:23.248Z,13.80
2023-02-04T17:36:50.276Z,15.50
2023-02-04T17:39:17.218Z,18.15
2023-02-04T17:41:44.272Z,14.68
2023-02-04T17:44:17.254Z,14.23
2023-02-04T17:46:44.539Z,13.63
2023-02-04T17:49:11.462Z,13.60
2023-02-04T17:51:38.471Z,16.77
2023-02-04T17:54:05.425Z,13.68
2023-02-04T17:56:32.824Z,14.18
2023-02-04T17:58:59.915Z,17.60
2023-02-04T18:01:29.113Z,13.88
2023-02-04T18:03:58.061Z,20.70
2023-02-04T18:06:30.345Z,18.13
2023-02-04T18:09:02.513Z,15.93
2023-02-04T18:11:36.038Z,16.88
2023-02-04T18:14:17.174Z,16.45
2023-02-04T18:16:45.125Z,18.60
2023-02-04T18:19:28.182Z,21.55
2023-02-04T18:21:56.136Z,21.40
2023-02-04T18:24:30.724Z,16.80
2023-02-04T18:27:03.157Z,21.63
2023-02-04T18:29:34.756Z,20.88
2023-02-04T18:32:20.786Z,25.42
2023-02-04T18:37:36.132Z,25.60
2023-02-04T18:40:24.905Z,24.63
2023-02-04T18:43:08.365Z,23.60
2023-02-04T18:45:35.838Z,24.25
2023-02-04T18:48:25.550Z,23.88
2023-02-04T18:50:54.593Z,29.95
2023-02-04T18:53:27.166Z,24.98
2023-02-04T18:55:58.056Z,24.08
2023-02-04T18:58:40.765Z,24.25
2023-02-04T19:01:10.843Z,26.33
2023-02-04T19:03:47.036Z,26.95
2023-02-04T19:06:23.573Z,21.45
2023-02-04T19:08:50.633Z,23.67
2023-02-04T19:11:34.529Z,24.38
2023-02-04T19:14:03.046Z,33.45
2023-02-04T19:16:36.833Z,26.55
2023-02-04T19:19:41.269Z,24.88
2023-02-04T19:22:19.095Z,20.15
2023-02-04T19:24:46.868Z,22.13
2023-02-04T19:27:30.760Z,24.20
2023-02-04T19:30:22.555Z,37.05
2023-02-04T19:32:55.777Z,30.10
2023-02-04T19:35:29.643Z,23.15
2023-02-04T19:38:00.628Z,28.17
2023-02-04T19:40:30.129Z,24.50
2023-02-04T19:43:36.986Z,24.23
2023-02-04T19:46:21.331Z,27.10
2023-02-04T19:48:48.357Z,22.85
2023-02-04T19:51:28.613Z,26.60
2023-02-04T19:54:10.987Z,20.23
2023-02-04T19:56:40.036Z,19.45
2023-02-04T19:59:19.176Z,17.48
2023-02-04T20:01:46.345Z,21.80
2023-02-04T20:04:21.696Z,28.40
2023-02-04T20:06:49.076Z,19.30
2023-02-04T20:09:16.821Z,22.30
2023-02-04T20:11:55.845Z,22.83
2023-02-04T20:14:40.340Z,22.13
2023-02-04T20:17:18.372Z,21.27
2023-02-04T20:19:45.980Z,25.27
2023-02-04T20:22:19.241Z,20.40
2023-02-04T20:24:50.598Z,24.60
2023-02-04T20:27:39.901Z,17.35
2023-02-04T20:30:11.914Z,15.98
2023-02-04T20:32:45.835Z,17.90
2023-02-04T20:35:13.031Z,15.93
2023-02-04T20:37:45.094Z,12.25
2023-02-04T20:40:32.404Z,14.73
2023-02-04T20:45:37.843Z,11.02
2023-02-04T20:48:17.107Z,15.57
2023-02-04T20:50:47.090Z,14.52
2023-02-04T20:53:36.934Z,11.27
2023-02-04T20:56:19.233Z,12.80
2023-02-04T20:58:46.631Z,10.45
2023-02-04T21:01:26.405Z,11.27
2023-02-04T21:03:53.574Z,9.57
2023-02-04T21:06:35.106Z,8.48
2023-02-04T21:09:04.348Z,6.18
2023-02-04T21:11:31.882Z,5.55
2023-02-04T21:13:59.226Z,9.30
2023-02-04T21:16:27.746Z,6.50
2023-02-04T21:18:54.869Z,9.73
2023-02-04T21:21:24.598Z,12.05
2023-02-04T21:23:51.708Z,8.55
2023-02-04T21:26:18.906Z,8.55
2023-02-04T21:28:45.957Z,6.05
2023-02-04T21:31:12.971Z,6.32
2023-02-04T21:33:40.135Z,5.07
2023-02-04T21:36:08.195Z,9.85
2023-02-04T21:38:35.244Z,7.30
2023-02-04T21:41:02.248Z,10.60
2023-02-04T21:43:29.522Z,7.63
2023-02-04T21:45:56.689Z,3.92
2023-02-04T21:48:24.987Z,8.30
2023-02-04T21:50:52.086Z,5.53
2023-02-04T21:53:19.420Z,6.78
2023-02-04T21:55:46.389Z,8.00
2023-02-04T21:58:13.496Z,6.22
2023-02-04T22:00:40.560Z,4.95
2023-02-04T22:03:13.253Z,6.82
2023-02-04T22:05:40.815Z,6.82
2023-02-04T22:08:09.447Z,4.35
2023-02-04T22:10:37.052Z,5.68
2023-02-04T22:13:04.229Z,5.88
2023-02-04T22:15:31.392Z,6.20
2023-02-04T22:17:58.498Z,5.72
2023-02-04T22:20:25.965Z,7.97
2023-02-04T22:22:53.930Z,6.32
2023-02-04T22:25:21.531Z,8.07
2023-02-04T22:27:49.670Z,8.80
2023-02-04T22:30:17.748Z,10.10
2023-02-04T22:32:44.946Z,4.47
2023-02-04T22:35:12.807Z,6.05
2023-02-04T22:37:41.332Z,17.30
2023-02-04T22:40:09.556Z,5.72
2023-02-04T22:42:36.653Z,7.78
2023-02-04T22:45:04.592Z,6.13
2023-02-04T22:47:32.206Z,5.90
2023-02-04T22:49:59.151Z,5.97
2023-02-04T22:52:26.266Z,6.20
2023-02-04T22:54:53.456Z,7.40
2023-02-04T22:57:20.457Z,4.47
2023-02-04T22:59:47.500Z,5.10
2023-02-04T23:02:14.512Z,8.45
2023-02-04T23:04:43.956Z,7.30
2023-02-04T23:07:12.830Z,8.07
2023-02-04T23:09:40.200Z,6.45
2023-02-04T23:12:13.715Z,3.15
2023-02-04T23:14:43.195Z,4.50
2023-02-04T23:17:11.014Z,4.07
2023-02-04T23:19:38.617Z,6.07
2023-02-04T23:22:08.971Z,4.63
2023-02-04T23:24:37.780Z,7.72
2023-02-04T23:27:05.693Z,5.85
2023-02-04T23:29:35.472Z,7.00
2023-02-04T23:32:03.796Z,8.05
2023-02-04T23:34:31.807Z,4.40
2023-02-04T23:36:58.831Z,5.45
2023-02-04T23:39:25.835Z,6.25
2023-02-04T23:41:53.578Z,5.25
2023-02-04T23:44:20.591Z,11.30
2023-02-04T23:46:47.642Z,6.07
2023-02-04T23:49:14.742Z,9.70
2023-02-04T23:51:42.240Z,8.32
2023-02-04T23:54:11.075Z,7.40
2023-02-04T23:56:38.222Z,5.05
2023-02-04T23:59:06.124Z,6.07
